createdAt,value
2022-08-05T00:10:43.145Z,5.97
2022-08-05T00:30:47.430Z,4.87
2022-08-05T00:50:55.629Z,5.97
2022-08-05T01:11:22.181Z,5.05
2022-08-05T01:31:44.633Z,4.97
2022-08-05T01:51:51.847Z,6.27
2022-08-05T02:12:07.155Z,6.30
2022-08-05T02:32:19.855Z,8.43
2022-08-05T02:52:30.487Z,7.72
2022-08-05T03:12:37.873Z,6.37
2022-08-05T03:32:41.476Z,8.50
2022-08-05T03:55:34.363Z,6.50
2022-08-05T04:13:18.328Z,7.65
2022-08-05T04:33:54.893Z,7.20
2022-08-05T04:53:45.026Z,7.47
2022-08-05T05:13:49.028Z,6.45
2022-08-05T05:33:59.860Z,8.00
2022-08-05T05:54:05.905Z,6.77
2022-08-05T06:14:15.126Z,12.85
2022-08-05T06:34:21.097Z,8.82
2022-08-05T06:54:25.789Z,5.53
2022-08-05T07:14:47.850Z,7.13
2022-08-05T07:34:57.974Z,5.40
2022-08-05T07:55:02.146Z,5.62
2022-08-05T08:16:33.681Z,5.37
2022-08-05T08:35:52.853Z,5.93
2022-08-05T08:56:05.960Z,5.80
2022-08-05T09:16:16.773Z,8.85
2022-08-05T09:36:21.005Z,6.35
2022-08-05T09:56:35.167Z,7.43
2022-08-05T10:16:43.093Z,11.10
2022-08-05T10:36:57.011Z,10.05
2022-08-05T10:57:00.885Z,9.57
2022-08-05T11:17:57.014Z,6.87
2022-08-05T11:38:29.636Z,5.57
2022-08-05T11:58:38.658Z,9.20
2022-08-05T12:18:42.599Z,7.12
2022-08-05T12:38:52.288Z,6.47
2022-08-05T12:59:13.834Z,6.18
2022-08-05T13:19:17.798Z,9.60
2022-08-05T13:40:13.726Z,7.37
2022-08-05T13:59:57.330Z,6.47
2022-08-05T14:20:07.493Z,6.32
2022-08-05T14:40:14.141Z,5.63
2022-08-05T15:00:21.518Z,5.83
2022-08-05T15:20:31.776Z,6.10
2022-08-05T15:41:03.539Z,7.62
2022-08-05T16:01:16.994Z,7.80
2022-08-05T16:21:58.478Z,9.47
2022-08-05T16:42:14.626Z,8.77
2022-08-05T17:02:09.314Z,7.68
2022-08-05T17:22:24.490Z,7.75
2022-08-05T17:42:32.239Z,10.38
2022-08-05T18:02:36.494Z,12.13
2022-08-05T18:22:53.892Z,11.65
2022-08-05T18:42:58.760Z,14.27
2022-08-05T19:03:04.251Z,13.85
2022-08-05T19:23:08.269Z,13.90
2022-08-05T19:44:04.719Z,14.33
2022-08-05T20:03:41.239Z,16.98
2022-08-05T20:23:51.291Z,14.63
2022-08-05T20:43:58.648Z,12.25
2022-08-05T21:04:07.295Z,14.73
2022-08-05T21:24:15.679Z,12.60
2022-08-05T21:44:19.146Z,13.55
2022-08-05T22:04:30.398Z,11.43
2022-08-05T22:24:53.578Z,11.43
2022-08-05T22:44:59.284Z,12.45
2022-08-05T23:05:05.030Z,10.43
2022-08-05T23:25:09.023Z,25.77
2022-08-05T23:45:15.724Z,13.40
